Time;durP1;ratioP1;P1;durP2;ratioP2;P2;SDS_P1;SDS_P2;PMS_P1;PMS_P2;Temp;Humidity;BMP_temperature;BMP_pressure;BME280_temperature;BME280_humidity;BME280_pressure;Samples;Min_cycle;Max_cycle;Signal;HPM_P1;HPM_P2
2022/08/10 00:01:26;;;;;;;23.38;13.35;;;;;;;21.22;71.09;93133.91;5032789;28;20407;-74
2022/08/10 00:03:52;;;;;;;22.48;13.13;;;;;;;21.20;70.75;93139.53;5034550;28;20135;-74
2022/08/10 00:06:17;;;;;;;21.38;13.43;;;;;;;21.19;70.38;93134.56;5052629;28;20598;-74
2022/08/10 00:08:43;;;;;;;21.92;13.55;;;;;;;21.16;70.46;93136.00;5048829;28;20610;-73
2022/08/10 00:11:09;;;;;;;26.75;13.20;;;;;;;21.14;70.32;93129.47;5014769;28;20041;-74
2022/08/10 00:13:35;;;;;;;24.98;14.85;;;;;;;21.11;70.23;93135.47;5015496;28;20033;-74
2022/08/10 00:16:01;;;;;;;25.98;13.73;;;;;;;21.10;69.98;93140.03;5034317;28;20563;-74
2022/08/10 00:18:26;;;;;;;27.38;12.63;;;;;;;21.09;69.86;93129.72;5034632;28;20035;-74
2022/08/10 00:20:53;;;;;;;28.73;12.18;;;;;;;21.07;69.40;93129.25;5034832;28;20041;-74
2022/08/10 00:23:19;;;;;;;23.40;12.45;;;;;;;21.06;69.54;93127.72;5034507;28;20095;-74
2022/08/10 00:25:44;;;;;;;23.33;11.65;;;;;;;21.05;69.60;93131.47;5051501;28;20442;-73
2022/08/10 00:28:10;;;;;;;21.05;12.45;;;;;;;21.04;69.91;93130.72;5034387;28;20041;-74
2022/08/10 00:30:36;;;;;;;30.75;12.40;;;;;;;21.01;70.13;93126.06;5034410;28;20033;-74
2022/08/10 00:33:02;;;;;;;25.08;12.95;;;;;;;20.98;70.43;93132.84;5034076;28;20037;-74
2022/08/10 00:35:27;;;;;;;22.83;12.60;;;;;;;20.97;70.57;93128.63;5033973;28;20029;-74
2022/08/10 00:37:53;;;;;;;21.65;12.25;;;;;;;20.94;70.92;93136.47;5034460;28;20082;-74
2022/08/10 00:40:18;;;;;;;25.85;12.95;;;;;;;20.92;71.03;93136.06;5034176;28;20040;-74
2022/08/10 00:42:44;;;;;;;22.73;11.88;;;;;;;20.88;71.17;93127.97;5051876;28;20036;-74
2022/08/10 00:45:10;;;;;;;27.63;12.68;;;;;;;20.82;71.93;93121.31;5034069;28;20043;-73
2022/08/10 00:47:35;;;;;;;23.30;12.65;;;;;;;20.80;71.54;93126.19;5034135;28;20563;-73
2022/08/10 00:50:02;;;;;;;18.58;11.73;;;;;;;20.75;71.64;93126.41;5034005;28;20040;-74
2022/08/10 00:52:29;;;;;;;23.75;10.98;;;;;;;20.71;71.53;93120.97;5051515;28;20029;-74
2022/08/10 00:54:55;;;;;;;19.33;11.25;;;;;;;20.67;71.23;93125.44;5033921;28;20099;-74
2022/08/10 00:57:21;;;;;;;21.55;10.75;;;;;;;20.62;71.15;93124.88;5051228;28;20029;-73
2022/08/10 00:59:47;;;;;;;26.75;11.95;;;;;;;20.53;72.14;93120.41;5051464;28;20031;-72
2022/08/10 01:02:12;;;;;;;19.50;11.82;;;;;;;20.51;71.89;93122.66;5033571;28;20040;-73
2022/08/10 01:04:38;;;;;;;21.23;12.40;;;;;;;20.50;71.40;93118.41;5033709;28;20445;-74
2022/08/10 01:07:22;;;;;;;20.23;11.68;;;;;;;20.50;71.46;93118.41;5016877;28;20037;-74
2022/08/10 01:10:00;;;;;;;19.85;11.73;;;;;;;20.47;72.04;93119.09;5051371;28;20531;-73
2022/08/10 01:12:37;;;;;;;18.90;11.93;;;;;;;20.42;71.88;93111.31;5033497;28;20037;-73
2022/08/10 01:15:18;;;;;;;23.83;12.52;;;;;;;20.39;71.71;93110.09;5051339;28;20510;-74
2022/08/10 01:18:21;;;;;;;25.08;12.30;;;;;;;20.36;71.73;93108.13;5027454;28;20069;-73
2022/08/10 01:21:29;;;;;;;17.08;11.00;;;;;;;20.35;71.58;93117.22;5031295;28;20116;-74
2022/08/10 01:23:58;;;;;;;21.35;11.45;;;;;;;20.32;71.76;93115.19;5031318;28;20522;-74
2022/08/10 01:26:58;;;;;;;25.88;12.27;;;;;;;20.32;72.00;93112.53;5051043;28;20094;-74
2022/08/10 01:29:48;;;;;;;23.08;11.95;;;;;;;20.31;71.63;93110.19;5050947;28;20036;-74
2022/08/10 01:32:23;;;;;;;19.48;10.52;;;;;;;20.29;71.69;93115.88;5025736;28;20411;-74
2022/08/10 01:34:54;;;;;;;20.85;10.90;;;;;;;20.28;71.45;93103.66;5031144;28;20401;-74
2022/08/10 01:37:23;;;;;;;17.85;10.98;;;;;;;20.27;71.77;93114.66;5013444;28;20033;-73
2022/08/10 01:39:54;;;;;;;19.40;10.93;;;;;;;20.26;71.38;93110.44;5031101;28;20377;-73
2022/08/10 01:42:22;;;;;;;19.25;10.38;;;;;;;20.26;71.31;93115.75;5031082;28;20037;-73
2022/08/10 01:45:02;;;;;;;20.25;10.52;;;;;;;20.23;71.83;93111.09;5048583;28;20033;-74
2022/08/10 01:50:36;;;;;;;20.00;10.90;;;;;;;20.22;72.04;93113.00;5030829;28;20120;-74
2022/08/10 01:53:06;;;;;;;20.05;10.32;;;;;;;20.22;71.45;93112.19;5030394;28;20049;-73
2022/08/10 01:55:33;;;;;;;16.63;10.20;;;;;;;20.23;71.39;93113.75;5030702;28;20495;-74
2022/08/10 01:58:04;;;;;;;20.25;10.70;;;;;;;20.23;71.07;93105.78;5005731;28;20041;-74
2022/08/10 02:00:34;;;;;;;18.95;10.13;;;;;;;20.23;70.96;93105.78;5029568;28;20454;-74
2022/08/10 02:03:03;;;;;;;20.17;10.25;;;;;;;20.24;71.27;93104.66;5030850;28;20518;-73
2022/08/10 02:05:30;;;;;;;28.17;10.10;;;;;;;20.23;71.28;93103.88;5029498;28;20064;-74
2022/08/10 02:07:59;;;;;;;17.83;10.18;;;;;;;20.23;71.00;93103.88;5030613;28;20045;-74
2022/08/10 02:10:27;;;;;;;14.80;9.63;;;;;;;20.23;71.04;93103.88;5029429;28;20403;-73
2022/08/10 02:12:56;;;;;;;18.85;10.30;;;;;;;20.23;71.31;93092.50;5030640;28;20395;-74
2022/08/10 02:15:24;;;;;;;17.02;10.00;;;;;;;20.23;71.55;93092.50;5030546;28;20562;-74
2022/08/10 02:17:57;;;;;;;20.02;10.40;;;;;;;20.23;71.99;93090.59;5033173;28;20041;-74
2022/08/10 02:20:26;;;;;;;17.40;9.80;;;;;;;20.20;71.76;93093.94;5047007;28;20029;-74
2022/08/10 02:22:55;;;;;;;18.25;9.95;;;;;;;20.18;71.86;93090.81;5032673;28;20063;-74
2022/08/10 02:25:23;;;;;;;18.92;9.20;;;;;;;20.15;72.11;93089.63;5032588;28;20441;-74
2022/08/10 02:27:50;;;;;;;21.05;9.57;;;;;;;20.14;71.99;93090.69;5016605;28;20052;-74
2022/08/10 02:30:16;;;;;;;17.52;9.77;;;;;;;20.12;71.58;93095.56;5032503;28;20022;-74
2022/08/10 02:32:42;;;;;;;18.27;9.95;;;;;;;20.10;71.66;93094.34;5032601;28;20090;-74
2022/08/10 02:35:12;;;;;;;17.90;9.77;;;;;;;20.08;71.85;93096.56;5050068;28;20048;-74
2022/08/10 02:37:42;;;;;;;18.05;9.13;;;;;;;20.06;71.61;93093.44;5050384;28;20044;-74
2022/08/10 02:40:09;;;;;;;18.27;9.32;;;;;;;20.05;71.40;93090.03;5050418;28;20043;-74
2022/08/10 02:42:56;;;;;;;16.92;9.20;;;;;;;20.03;71.37;93097.56;5050192;28;20052;-74
2022/08/10 02:45:37;;;;;;;22.67;10.15;;;;;;;20.01;71.18;93081.16;5050548;28;20028;-74
2022/08/10 02:48:11;;;;;;;24.92;10.13;;;;;;;20.00;71.49;93089.47;5050153;28;20041;-74
2022/08/10 02:50:40;;;;;;;18.85;10.18;;;;;;;19.98;71.56;93084.50;5050345;28;20064;-74
2022/08/10 02:53:15;;;;;;;15.73;9.90;;;;;;;19.97;71.55;93082.91;5035819;28;20049;-74
2022/08/10 02:55:48;;;;;;;19.73;10.35;;;;;;;19.96;71.73;93078.72;5035800;28;20032;-74
2022/08/10 02:58:23;;;;;;;20.48;9.70;;;;;;;19.97;71.62;93080.25;5053874;28;20036;-74
2022/08/10 03:00:54;;;;;;;22.90;9.93;;;;;;;19.97;71.62;93085.56;5054209;28;20028;-74
2022/08/10 03:03:27;;;;;;;18.25;11.00;;;;;;;19.94;71.82;93075.63;5053722;28;20056;-74
2022/08/10 03:06:02;;;;;;;20.83;10.10;;;;;;;19.94;71.70;93087.00;5035965;28;20218;-74
2022/08/10 03:08:32;;;;;;;17.30;10.13;;;;;;;19.94;71.54;93086.25;5035850;28;20045;-74
2022/08/10 03:11:01;;;;;;;15.85;9.35;;;;;;;19.93;72.72;93084.72;5035677;28;20068;-73
2022/08/10 03:13:29;;;;;;;18.73;9.30;;;;;;;19.92;73.01;93081.25;5053549;28;20025;-74
2022/08/10 03:15:56;;;;;;;18.90;10.13;;;;;;;19.91;72.58;93081.59;5053459;28;20045;-74
2022/08/10 03:18:23;;;;;;;21.10;10.73;;;;;;;19.91;72.18;93086.91;5035313;28;20068;-74
2022/08/10 03:20:50;;;;;;;20.42;9.73;;;;;;;19.90;72.49;93080.03;5053531;28;20032;-74
2022/08/10 03:23:20;;;;;;;19.90;10.38;;;;;;;19.89;72.45;93084.56;5053343;28;20033;-74
2022/08/10 03:25:48;;;;;;;16.15;10.07;;;;;;;19.88;72.30;93087.56;5035406;28;20182;-74
2022/08/10 03:28:15;;;;;;;14.43;9.98;;;;;;;19.87;72.55;93080.69;5035490;28;20029;-74
2022/08/10 03:30:42;;;;;;;17.88;9.40;;;;;;;19.86;72.22;93074.63;5052048;28;20091;-74
2022/08/10 03:33:09;;;;;;;19.13;9.75;;;;;;;19.88;72.08;93082.25;5034034;28;20065;-74
2022/08/10 03:35:35;;;;;;;20.00;9.43;;;;;;;19.86;72.24;93071.97;5053769;28;20399;-74
2022/08/10 03:38:01;;;;;;;15.70;9.32;;;;;;;19.88;72.24;93071.63;5035275;28;20037;-72
2022/08/10 03:40:29;;;;;;;13.50;8.93;;;;;;;19.85;72.47;93080.25;5018795;28;20025;-74
2022/08/10 03:42:57;;;;;;;18.23;9.15;;;;;;;19.83;72.46;93079.81;5053091;28;20028;-74
2022/08/10 03:45:24;;;;;;;16.95;8.63;;;;;;;19.82;72.37;93078.25;5052858;28;20035;-74
2022/08/10 03:47:52;;;;;;;22.35;9.15;;;;;;;19.80;72.35;93075.94;5035068;28;20033;-74
2022/08/10 03:50:18;;;;;;;19.85;9.32;;;;;;;19.78;72.19;93072.06;5052656;28;20106;-74
2022/08/10 03:52:44;;;;;;;17.65;8.90;;;;;;;19.75;72.37;93073.50;5052321;28;20064;-74
2022/08/10 03:55:10;;;;;;;14.82;9.40;;;;;;;19.74;72.54;93082.53;5042131;28;20427;-74
2022/08/10 03:57:37;;;;;;;19.85;9.23;;;;;;;19.72;72.70;93080.25;5052647;28;20025;-74
2022/08/10 04:00:03;;;;;;;17.10;8.70;;;;;;;19.70;72.74;93077.13;5052697;28;20044;-74
2022/08/10 04:02:31;;;;;;;16.25;9.07;;;;;;;19.68;72.81;93076.66;5052164;28;20068;-74
2022/08/10 04:04:57;;;;;;;17.52;9.50;;;;;;;19.70;72.79;93081.66;5014726;28;20479;-74
2022/08/10 04:07:23;;;;;;;19.85;9.50;;;;;;;19.69;72.49;93080.09;5020200;28;20071;-74
2022/08/10 04:09:50;;;;;;;20.20;9.90;;;;;;;19.69;72.36;93080.88;5052709;28;20395;-74
2022/08/10 04:12:16;;;;;;;18.85;9.65;;;;;;;19.68;72.29;93079.31;5018443;28;20035;-74
2022/08/10 04:14:42;;;;;;;15.05;9.02;;;;;;;19.65;72.09;93085.25;5034555;28;20068;-74
2022/08/10 04:17:07;;;;;;;18.27;10.05;;;;;;;19.65;71.91;93089.78;5034356;28;20068;-74
2022/08/10 04:19:40;;;;;;;15.65;8.80;;;;;;;19.64;72.13;93090.91;5033474;28;20068;-74
2022/08/10 04:22:14;;;;;;;19.95;9.32;;;;;;;19.60;72.23;93096.09;5035499;28;20066;-74
2022/08/10 04:24:40;;;;;;;19.75;9.35;;;;;;;19.59;72.17;93085.78;5031038;28;20171;-74
2022/08/10 04:27:07;;;;;;;22.73;11.02;;;;;;;19.61;71.96;93089.69;5023899;28;20028;-74
2022/08/10 04:29:33;;;;;;;23.10;11.10;;;;;;;19.62;71.63;93088.56;5017147;28;20056;-74
2022/08/10 04:32:01;;;;;;;21.58;10.30;;;;;;;19.65;71.40;93087.16;5051510;28;20037;-73
2022/08/10 04:34:30;;;;;;;18.63;10.85;;;;;;;19.67;70.94;93088.38;5051653;28;20025;-74
2022/08/10 04:36:59;;;;;;;19.65;11.07;;;;;;;19.72;69.81;93085.56;5033388;28;20029;-74
2022/08/10 04:39:24;;;;;;;22.33;10.68;;;;;;;19.78;69.19;93093.31;5033720;28;20029;-74
2022/08/10 04:41:50;;;;;;;22.30;11.50;;;;;;;19.83;68.45;93090.44;5033565;28;20086;-73
2022/08/10 04:44:16;;;;;;;21.77;12.05;;;;;;;19.92;67.30;93093.78;5034004;28;20498;-73
2022/08/10 04:46:42;;;;;;;19.98;11.13;;;;;;;19.98;66.80;93097.78;5032782;28;20124;-74
2022/08/10 04:49:07;;;;;;;19.63;10.95;;;;;;;20.03;66.73;93088.81;5033620;28;20025;-74
2022/08/10 04:51:33;;;;;;;23.83;11.52;;;;;;;20.05;66.52;93092.69;5029854;28;20044;-74
2022/08/10 04:53:59;;;;;;;24.48;11.30;;;;;;;20.10;66.24;93089.03;5012721;28;20049;-74
2022/08/10 04:56:24;;;;;;;19.70;11.13;;;;;;;20.15;65.68;93100.25;5047397;28;20453;-74
2022/08/10 04:58:50;;;;;;;17.52;11.10;;;;;;;20.16;65.74;93091.16;5044460;28;20056;-74
2022/08/10 05:01:16;;;;;;;18.67;10.65;;;;;;;20.18;66.40;93096.91;5050143;28;20032;-74
2022/08/10 05:03:41;;;;;;;21.15;10.30;;;;;;;20.18;66.51;93096.91;5015828;28;20041;-74
2022/08/10 05:06:07;;;;;;;16.65;9.75;;;;;;;20.18;66.76;93096.91;5042135;28;20025;-74
2022/08/10 05:08:33;;;;;;;15.70;9.52;;;;;;;20.21;67.06;93102.69;5026552;28;20033;-73
2022/08/10 05:10:58;;;;;;;19.52;9.55;;;;;;;20.20;67.63;93101.09;5049311;28;20395;-73
2022/08/10 05:13:24;;;;;;;17.33;10.68;;;;;;;20.22;67.75;93104.22;5021850;28;20032;-73
2022/08/10 05:15:50;;;;;;;17.88;10.38;;;;;;;20.23;67.00;93100.47;5029674;28;20045;-74
2022/08/10 05:18:16;;;;;;;18.48;10.27;;;;;;;20.27;66.99;93109.34;5030880;28;20038;-74
2022/08/10 05:20:42;;;;;;;20.73;10.38;;;;;;;20.31;65.99;93107.53;5032792;28;20388;-74
2022/08/10 05:23:08;;;;;;;20.38;10.05;;;;;;;20.33;66.03;93103.47;5047361;28;20048;-75
2022/08/10 05:25:33;;;;;;;19.92;10.60;;;;;;;20.38;64.79;93110.44;5044937;28;20025;-75
2022/08/10 05:27:59;;;;;;;18.88;11.07;;;;;;;20.44;64.10;93114.41;5031866;28;20033;-75
2022/08/10 05:30:25;;;;;;;18.75;10.18;;;;;;;20.48;64.13;93111.88;5050684;28;20495;-75
2022/08/10 05:32:50;;;;;;;19.35;10.48;;;;;;;20.53;65.48;93115.09;5016737;28;20475;-75
2022/08/10 05:35:16;;;;;;;23.95;10.32;;;;;;;20.54;65.60;93116.66;5032657;28;20517;-75
2022/08/10 05:37:44;;;;;;;32.22;10.95;;;;;;;20.58;64.78;93114.16;5016688;28;20399;-75
2022/08/10 05:40:11;;;;;;;20.25;10.90;;;;;;;20.63;65.46;93111.25;5032868;28;20516;-75
2022/08/10 05:42:38;;;;;;;20.00;10.63;;;;;;;20.68;65.01;93113.69;5033303;28;20031;-75
2022/08/10 05:45:04;;;;;;;18.75;10.68;;;;;;;20.76;64.70;93120.78;5050906;28;20479;-75
2022/08/10 05:47:29;;;;;;;16.75;9.95;;;;;;;20.83;64.85;93120.22;5050414;28;20091;-75
2022/08/10 05:49:56;;;;;;;16.88;9.68;;;;;;;20.88;64.96;93117.31;5031932;28;20491;-75
2022/08/10 05:52:21;;;;;;;17.70;9.57;;;;;;;20.97;64.97;93114.53;5013108;28;20043;-75
2022/08/10 05:54:48;;;;;;;17.95;10.10;;;;;;;21.07;64.84;93118.63;5009732;28;20588;-75
2022/08/10 05:57:15;;;;;;;16.23;9.90;;;;;;;21.19;64.28;93115.94;5027453;28;20496;-75
2022/08/10 05:59:46;;;;;;;17.40;10.45;;;;;;;21.34;61.23;93122.44;5029548;28;20037;-75
2022/08/10 06:02:23;;;;;;;20.93;11.20;;;;;;;21.46;60.29;93121.63;5029641;28;20041;-75
2022/08/10 06:04:51;;;;;;;16.40;10.45;;;;;;;21.65;58.77;93124.47;5011823;28;20045;-75
2022/08/10 06:07:19;;;;;;;18.42;10.43;;;;;;;21.67;59.37;93129.47;5029686;28;20447;-75
2022/08/10 06:09:46;;;;;;;21.48;10.52;;;;;;;21.78;60.13;93125.19;5028121;28;20372;-75
2022/08/10 06:12:13;;;;;;;19.48;10.23;;;;;;;21.82;60.64;93131.41;5027988;28;20121;-75
2022/08/10 06:15:00;;;;;;;19.33;9.90;;;;;;;21.87;60.20;93128.47;5029426;28;20483;-75
2022/08/10 06:17:28;;;;;;;18.42;11.05;;;;;;;22.12;58.54;93134.44;5029351;28;20041;-75
2022/08/10 06:19:55;;;;;;;17.85;9.65;;;;;;;22.39;59.00;93132.84;5030739;28;20060;-75
2022/08/10 06:22:22;;;;;;;16.63;10.68;;;;;;;22.17;59.32;93131.53;5029559;28;20451;-75
2022/08/10 06:24:48;;;;;;;17.45;9.60;;;;;;;22.20;59.12;93136.19;5030220;28;20037;-75
2022/08/10 06:27:14;;;;;;;20.70;10.35;;;;;;;22.03;58.78;93139.16;5034572;28;20045;-75
2022/08/10 06:29:42;;;;;;;17.30;8.65;;;;;;;22.36;57.04;93141.56;5013483;28;20030;-75
2022/08/10 06:32:10;;;;;;;16.08;8.30;;;;;;;23.38;52.88;93132.81;5013158;28;20061;-75
2022/08/10 06:34:43;;;;;;;14.38;9.38;;;;;;;24.14;53.06;93135.06;5013556;28;20038;-75
2022/08/10 06:37:11;;;;;;;18.67;9.15;;;;;;;24.76;50.53;93131.50;5013476;28;20038;-75
2022/08/10 06:39:36;;;;;;;17.33;9.00;;;;;;;25.33;49.27;93130.44;4997332;28;20351;-76
2022/08/10 06:42:14;;;;;;;15.40;8.48;;;;;;;25.95;48.15;93135.38;5013539;28;20084;-75
2022/08/10 06:44:50;;;;;;;15.55;8.48;;;;;;;26.56;46.47;93129.84;5014633;28;20040;-76
2022/08/10 06:47:18;;;;;;;18.83;9.15;;;;;;;27.10;45.94;93135.63;4996943;28;20041;-76
2022/08/10 06:49:49;;;;;;;16.45;8.55;;;;;;;27.18;44.59;93127.25;5014481;28;20438;-76
2022/08/10 06:52:15;;;;;;;16.40;9.13;;;;;;;27.26;45.20;93132.69;5013370;28;20041;-76
2022/08/10 06:54:42;;;;;;;16.58;10.10;;;;;;;26.83;46.03;93137.75;5013034;28;20060;-75
2022/08/10 06:57:10;;;;;;;16.10;9.57;;;;;;;26.62;45.76;93139.13;5027422;28;20073;-76
2022/08/10 06:59:43;;;;;;;19.08;9.32;;;;;;;26.15;48.17;93132.53;5028140;28;20534;-76
2022/08/10 07:02:28;;;;;;;17.05;9.68;;;;;;;25.95;47.77;93140.75;5014674;28;20050;-75
2022/08/10 07:05:00;;;;;;;16.58;8.50;;;;;;;25.91;47.22;93133.81;5014253;28;20034;-76
2022/08/10 07:07:27;;;;;;;;;;;;;;;26.01;46.95;93133.16;5014731;28;20408;-75
2022/08/10 07:09:55;;;;;;;13.82;7.68;;;;;;;26.16;46.38;93144.78;5013138;28;19917;-76
2022/08/10 07:12:22;;;;;;;18.38;7.82;;;;;;;26.26;46.66;93154.88;5013550;28;20107;-76
2022/08/10 07:14:50;;;;;;;15.73;6.70;;;;;;;26.61;43.27;93153.66;5015712;28;20033;-76
2022/08/10 07:17:21;;;;;;;12.25;7.53;;;;;;;26.68;42.68;93151.06;5034058;28;20040;-76
2022/08/10 07:19:54;;;;;;;11.57;7.32;;;;;;;26.43;43.97;93147.34;5032764;28;20037;-76
2022/08/10 07:22:23;;;;;;;12.80;6.80;;;;;;;26.27;42.81;93151.03;5033896;28;20033;-76
2022/08/10 07:24:50;;;;;;;13.40;7.00;;;;;;;25.94;44.40;93144.59;5032573;28;20041;-75
2022/08/10 07:27:16;;;;;;;12.05;6.55;;;;;;;25.71;44.95;93147.38;5032309;28;20049;-76
2022/08/10 07:29:43;;;;;;;14.00;6.70;;;;;;;25.57;44.57;93141.81;5033122;28;20095;-76
2022/08/10 07:32:11;;;;;;;11.43;6.60;;;;;;;25.94;44.89;93147.25;5032317;28;20041;-76
2022/08/10 07:34:38;;;;;;;11.35;7.05;;;;;;;26.27;43.96;93143.00;5015758;28;20037;-75
2022/08/10 07:37:06;;;;;;;13.10;6.50;;;;;;;26.27;41.81;93145.66;5031364;28;20105;-75
2022/08/10 07:39:38;;;;;;;12.68;6.68;;;;;;;26.02;43.64;93150.03;5033524;28;20037;-76
2022/08/10 07:42:08;;;;;;;16.10;6.68;;;;;;;25.87;45.84;93139.16;5032210;28;20038;-76
2022/08/10 07:44:38;;;;;;;13.32;6.80;;;;;;;26.06;44.63;93148.16;5033257;28;20549;-75
2022/08/10 07:47:07;;;;;;;11.88;6.82;;;;;;;26.04;43.91;93142.38;5032853;28;20025;-75
2022/08/10 07:49:38;;;;;;;12.15;7.18;;;;;;;25.88;45.35;93146.03;5034321;28;20041;-74
2022/08/10 07:52:09;;;;;;;15.10;6.80;;;;;;;25.83;43.84;93140.97;5032040;28;20045;-74
2022/08/10 07:54:44;;;;;;;9.10;6.30;;;;;;;25.58;44.82;93145.25;5034804;28;20049;-74
2022/08/10 07:57:16;;;;;;;14.25;6.72;;;;;;;25.84;44.83;93139.84;5031740;28;20490;-74
2022/08/10 07:59:43;;;;;;;;;;;;;;;26.30;43.80;93138.78;5027816;28;20040;-75
2022/08/10 08:02:30;;;;;;;11.45;6.50;;;;;;;26.04;43.53;93142.38;5013495;28;19909;-77
2022/08/10 08:05:01;;;;;;;16.02;6.40;;;;;;;26.42;41.66;93146.59;5013098;28;20037;-77
2022/08/10 08:07:28;;;;;;;12.73;5.40;;;;;;;26.48;40.98;93141.63;5013397;28;20095;-76
2022/08/10 08:09:56;;;;;;;10.52;5.57;;;;;;;25.83;42.24;93138.31;5013191;28;20339;-77
2022/08/10 08:12:23;;;;;;;9.93;5.70;;;;;;;26.05;41.41;93143.91;5016170;28;20041;-77
2022/08/10 08:14:49;;;;;;;10.20;5.78;;;;;;;26.14;42.77;93134.44;5034186;28;20036;-77
2022/08/10 08:17:16;;;;;;;9.93;5.72;;;;;;;26.16;42.91;93134.06;5031481;28;20136;-75
2022/08/10 08:19:48;;;;;;;12.23;6.18;;;;;;;26.33;42.35;93141.53;5013012;28;20046;-77
2022/08/10 08:22:16;;;;;;;9.10;5.90;;;;;;;26.52;42.61;93139.75;5019940;28;20034;-75
2022/08/10 08:24:43;;;;;;;9.35;5.75;;;;;;;26.44;41.82;93143.53;5013406;28;20033;-75
2022/08/10 08:27:11;;;;;;;10.35;5.68;;;;;;;26.31;41.63;93145.72;5011358;28;20042;-75
2022/08/10 08:29:40;;;;;;;10.95;5.75;;;;;;;26.33;42.29;93144.19;5011195;28;20091;-76
2022/08/10 08:32:06;;;;;;;11.57;6.10;;;;;;;26.51;40.89;93139.00;5011453;28;20026;-75
2022/08/10 08:34:37;;;;;;;11.23;5.70;;;;;;;26.35;42.69;93147.28;5029094;28;20040;-74
2022/08/10 08:37:05;;;;;;;10.43;5.30;;;;;;;26.38;41.58;93151.16;5032183;28;20037;-74
2022/08/10 08:39:32;;;;;;;11.02;5.72;;;;;;;26.50;41.79;93148.22;5022097;28;20029;-74
2022/08/10 08:42:21;;;;;;;8.23;5.30;;;;;;;26.57;41.10;93145.59;5032158;28;20548;-74
2022/08/10 08:45:05;;;;;;;11.82;5.50;;;;;;;26.54;41.49;93142.84;5030665;28;20510;-75
2022/08/10 08:48:08;;;;;;;7.53;5.32;;;;;;;26.46;40.35;93142.03;5012643;28;20029;-75
2022/08/10 08:50:53;;;;;;;10.45;5.72;;;;;;;26.01;40.96;93137.72;5028228;28;20053;-74
2022/08/10 08:54:09;;;;;;;10.68;5.38;;;;;;;26.00;42.52;93136.19;5020703;28;20045;-75
2022/08/10 08:57:16;;;;;;;8.25;5.35;;;;;;;25.83;42.55;93132.94;5045232;28;20041;-73
2022/08/10 09:00:06;;;;;;;10.38;5.03;;;;;;;26.29;42.91;93131.91;4989376;28;20048;-73
2022/08/10 09:03:00;;;;;;;10.45;5.80;;;;;;;26.42;41.46;93140.47;4988766;28;20412;-73
2022/08/10 09:05:41;;;;;;;15.07;5.28;;;;;;;26.56;41.97;93137.91;5009164;28;20042;-72
2022/08/10 09:08:34;;;;;;;8.30;5.15;;;;;;;26.67;42.66;93138.78;5014445;28;20389;-73
2022/08/10 09:11:25;;;;;;;9.85;5.57;;;;;;;26.69;41.35;93133.81;5013553;28;20044;-73
2022/08/10 09:14:07;;;;;;;9.50;5.47;;;;;;;26.84;40.62;93133.91;5046040;28;20033;-73
2022/08/10 09:16:42;;;;;;;;;;;;;;;26.47;41.39;93132.06;5051475;28;20040;-73
2022/08/10 09:19:20;;;;;;;10.65;5.68;;;;;;;26.00;42.16;93125.47;5051480;28;20424;-73
2022/08/10 09:21:56;;;;;;;8.30;5.20;;;;;;;26.02;42.54;93128.56;5051094;28;20510;-73
2022/08/10 09:24:43;;;;;;;11.30;5.00;;;;;;;26.13;42.41;93134.81;5033329;28;20127;-73
2022/08/10 09:27:21;;;;;;;8.23;5.43;;;;;;;26.41;41.77;93128.94;5051126;28;20033;-73
2022/08/10 09:30:01;;;;;;;11.20;5.63;;;;;;;26.42;40.84;93130.47;5037362;28;20124;-72
2022/08/10 09:32:52;;;;;;;10.57;5.40;;;;;;;26.64;40.31;93130.69;5031004;28;20037;-73
2022/08/10 09:35:28;;;;;;;9.45;5.20;;;;;;;26.75;40.69;93126.94;5030890;28;20033;-73
2022/08/10 09:38:35;;;;;;;11.98;5.15;;;;;;;26.91;41.21;93129.38;5030500;28;20168;-73
2022/08/10 09:41:40;;;;;;;9.77;5.50;;;;;;;26.96;41.81;93125.56;4915446;29;20046;-73
2022/08/10 09:44:42;;;;;;;11.25;5.55;;;;;;;27.14;39.52;93123.75;5030863;28;20403;-73
2022/08/10 09:47:17;;;;;;;13.13;5.75;;;;;;;27.26;41.34;93125.38;4931089;29;20050;-73
2022/08/10 09:50:08;;;;;;;9.82;5.50;;;;;;;26.96;39.46;93128.25;5017093;28;20171;-73
2022/08/10 09:52:47;;;;;;;11.50;6.10;;;;;;;26.93;41.23;93123.59;5012904;28;20037;-73
2022/08/10 09:55:37;;;;;;;12.73;5.60;;;;;;;27.10;41.40;93120.28;5031984;28;20048;-73
2022/08/10 09:58:24;;;;;;;9.10;5.60;;;;;;;26.65;41.04;93114.22;5050769;28;20071;-73
2022/08/10 10:00:58;;;;;;;9.98;5.30;;;;;;;26.50;44.79;93109.84;5015913;28;20060;-73
2022/08/10 10:03:40;;;;;;;11.75;6.05;;;;;;;26.75;42.02;93118.91;5032995;28;20033;-73
2022/08/10 10:06:35;;;;;;;9.70;6.05;;;;;;;27.00;41.15;93107.56;5047145;28;20042;-73
2022/08/10 10:09:19;;;;;;;12.00;5.75;;;;;;;27.23;40.63;93110.00;4996680;28;20478;-73
2022/08/10 10:11:56;;;;;;;9.23;4.90;;;;;;;27.43;40.33;93105.13;5012961;28;20495;-73
2022/08/10 10:18:01;;;;;;;9.07;5.85;;;;;;;27.64;40.09;93091.00;5029700;28;20081;-73
2022/08/10 10:20:54;;;;;;;7.45;5.05;;;;;;;27.12;41.48;93096.47;5030667;28;20033;-73
2022/08/10 10:23:38;;;;;;;9.23;5.18;;;;;;;27.28;41.64;93098.13;5030573;28;20034;-73
2022/08/10 10:26:41;;;;;;;8.60;6.22;;;;;;;26.84;40.62;93090.94;5031433;28;20390;-73
2022/08/10 10:29:23;;;;;;;7.80;5.25;;;;;;;26.50;41.36;93083.78;5030393;28;20037;-73
2022/08/10 10:32:09;;;;;;;9.80;5.72;;;;;;;26.11;41.56;93089.56;5037219;28;20080;-73
2022/08/10 10:34:44;;;;;;;10.23;5.63;;;;;;;26.20;41.22;93085.81;5050784;28;20361;-73
2022/08/10 10:37:12;;;;;;;11.63;5.28;;;;;;;26.58;41.33;93087.31;5048797;28;20037;-73
2022/08/10 10:39:43;;;;;;;9.13;5.25;;;;;;;26.55;41.46;93083.47;5032067;28;20025;-73
2022/08/10 10:42:25;;;;;;;9.85;5.32;;;;;;;26.24;41.89;93076.66;5032446;28;20043;-73
2022/08/10 10:44:54;;;;;;;9.98;4.20;;;;;;;26.26;41.50;93079.75;5032375;28;20487;-73
2022/08/10 10:47:45;;;;;;;12.02;5.35;;;;;;;26.13;42.07;93075.78;5050115;28;20132;-73
2022/08/10 10:50:33;;;;;;;7.63;4.20;;;;;;;25.99;41.24;93073.75;5031948;28;20037;-73
2022/08/10 10:53:52;;;;;;;8.30;4.82;;;;;;;26.22;42.01;93078.16;5049857;28;20053;-73
2022/08/10 10:56:29;;;;;;;10.13;5.45;;;;;;;26.66;41.58;93075.50;5017456;28;20419;-73
2022/08/10 10:59:24;;;;;;;8.82;5.05;;;;;;;26.34;40.22;93076.00;5032113;28;20518;-73
2022/08/10 11:01:56;;;;;;;9.10;4.97;;;;;;;26.21;41.25;93073.94;5019089;28;20520;-73
2022/08/10 11:04:44;;;;;;;13.45;5.20;;;;;;;26.13;41.60;93075.78;5050223;28;20323;-74
2022/08/10 11:07:18;;;;;;;7.35;4.93;;;;;;;26.56;41.42;93068.13;5049983;28;20045;-73
2022/08/10 11:09:54;;;;;;;8.60;5.50;;;;;;;26.81;41.22;93064.84;5050153;28;20120;-73
2022/08/10 11:12:41;;;;;;;7.65;4.75;;;;;;;26.74;39.79;93063.63;5051279;28;20037;-73
2022/08/10 11:15:23;;;;;;;10.18;5.35;;;;;;;26.83;40.79;93057.94;5035861;28;20036;-73
2022/08/10 11:18:02;;;;;;;8.32;5.07;;;;;;;26.79;41.17;93063.31;5035640;28;20060;-73
2022/08/10 11:20:46;;;;;;;8.32;4.78;;;;;;;26.55;40.58;93055.84;5053427;28;20040;-73
2022/08/10 11:23:21;;;;;;;6.70;3.95;;;;;;;26.39;40.27;93056.09;5034918;28;20029;-73
2022/08/10 11:26:00;;;;;;;7.15;4.63;;;;;;;26.55;41.73;93053.16;5035402;28;20028;-73
2022/08/10 11:28:42;;;;;;;8.38;5.00;;;;;;;26.41;40.81;93056.47;5035393;28;20447;-73
2022/08/10 11:31:14;;;;;;;11.10;4.90;;;;;;;26.46;39.63;93055.38;5019123;28;20039;-73
2022/08/10 11:33:47;;;;;;;7.18;4.65;;;;;;;26.59;41.90;93045.88;5035461;28;20052;-73
2022/08/10 11:36:40;;;;;;;10.50;4.70;;;;;;;26.55;41.20;93045.13;5034173;28;20087;-73
2022/08/10 11:39:31;;;;;;;8.15;4.90;;;;;;;26.28;40.47;93050.63;5015604;28;20064;-73
2022/08/10 11:42:05;;;;;;;9.65;5.38;;;;;;;26.36;41.40;93044.16;5033150;28;20116;-73
2022/08/10 11:44:46;;;;;;;9.55;5.10;;;;;;;26.41;40.78;93042.28;5015621;28;20386;-73
2022/08/10 11:47:22;;;;;;;10.45;4.55;;;;;;;26.57;40.89;93040.16;5041807;28;20174;-73
2022/08/10 11:50:07;;;;;;;7.85;4.30;;;;;;;26.62;41.31;93033.66;5052787;28;20025;-73
2022/08/10 11:52:51;;;;;;;7.50;4.70;;;;;;;26.43;41.78;93031.94;5052768;28;20033;-73
2022/08/10 11:55:24;;;;;;;6.88;4.05;;;;;;;26.33;41.35;93030.72;5052980;28;20037;-73
2022/08/10 11:57:59;;;;;;;13.45;4.35;;;;;;;26.19;41.42;93026.03;5052244;28;20116;-73